createdAt,value
2022-08-20T00:07:04.786Z,680
2022-08-20T00:18:05.525Z,682
2022-08-20T00:26:51.755Z,682
2022-08-20T00:44:08.748Z,685
2022-08-20T00:56:30.007Z,685
2022-08-20T01:07:30.725Z,682
2022-08-20T01:18:44.370Z,686
2022-08-20T01:40:58.716Z,686
2022-08-20T01:56:55.950Z,691
2022-08-20T02:21:38.537Z,681
2022-08-20T02:47:41.730Z,684
2022-08-20T03:02:31.299Z,685
2022-08-20T03:11:19.985Z,684
2022-08-20T03:32:43.224Z,688
2022-08-20T03:42:52.679Z,689
2022-08-20T03:55:30.297Z,688
2022-08-20T04:26:17.062Z,683
2022-08-20T04:40:15.467Z,689
2022-08-20T04:57:33.185Z,691
2022-08-20T05:15:58.534Z,687
2022-08-20T05:27:24.498Z,690
2022-08-20T05:34:37.168Z,693
2022-08-20T05:40:41.156Z,684
2022-08-20T05:49:26.715Z,681
2022-08-20T05:56:51.455Z,678
2022-08-20T06:05:23.754Z,682
2022-08-20T06:16:37.655Z,688
2022-08-20T06:33:55.384Z,686
2022-08-20T06:46:16.719Z,691
2022-08-20T06:53:41.448Z,688
2022-08-20T07:01:10.221Z,691
2022-08-20T07:08:31.009Z,681
2022-08-20T07:15:55.803Z,688
2022-08-20T07:23:20.622Z,683
2022-08-20T07:30:57.083Z,685
2022-08-20T07:38:10.133Z,684
2022-08-20T07:48:03.184Z,688
2022-08-20T07:55:27.969Z,679
2022-08-20T08:02:52.835Z,678
2022-08-20T08:08:56.921Z,677
2022-08-20T08:15:14.034Z,684
2022-08-20T08:22:38.802Z,680
2022-08-20T08:33:39.512Z,678
2022-08-20T08:44:53.160Z,676
2022-08-20T08:52:17.946Z,675
2022-08-20T08:59:48.491Z,682
2022-08-20T09:07:07.521Z,679
2022-08-20T09:14:32.319Z,678
2022-08-20T09:23:04.721Z,683
2022-08-20T09:29:21.873Z,685
2022-08-20T09:44:11.482Z,688
2022-08-20T09:51:36.222Z,681
2022-08-20T09:59:02.933Z,689
2022-08-20T10:12:29.928Z,686
2022-08-20T10:21:15.367Z,683
2022-08-20T10:28:40.149Z,689
2022-08-20T10:36:04.974Z,683
2022-08-20T10:43:29.688Z,683
2022-08-20T10:50:54.495Z,684
2022-08-20T10:58:19.248Z,681
2022-08-20T11:08:12.646Z,682
2022-08-20T11:20:33.603Z,674
2022-08-20T11:26:37.719Z,680
2022-08-20T11:35:49.974Z,680
2022-08-20T11:43:12.648Z,679
2022-08-20T11:51:20.306Z,676
2022-08-20T11:57:37.514Z,675
2022-08-20T12:05:18.669Z,674
2022-08-20T12:12:43.459Z,676
2022-08-20T12:22:36.496Z,676
2022-08-20T12:30:01.303Z,680
2022-08-20T12:37:26.077Z,678
2022-08-20T12:49:47.346Z,671
2022-08-20T13:21:54.777Z,670
2022-08-20T13:30:27.069Z,666
2022-08-20T13:41:40.824Z,669
2022-08-20T13:55:09.688Z,666
2022-08-20T14:18:44.702Z,668
2022-08-20T14:43:27.309Z,675
2022-08-20T14:50:52.089Z,674
2022-08-20T14:58:16.873Z,678
2022-08-20T15:05:41.630Z,676
2022-08-20T15:34:00.024Z,670
2022-08-20T15:42:46.604Z,672
2022-08-20T15:58:42.636Z,663
2022-08-20T16:19:49.437Z,667
2022-08-20T16:32:10.793Z,670
2022-08-20T16:42:05.787Z,673
2022-08-20T16:48:07.821Z,670
2022-08-20T16:56:53.529Z,670
2022-08-20T17:04:18.132Z,670
2022-08-20T17:11:42.888Z,666
2022-08-20T17:37:33.623Z,673
2022-08-20T18:02:15.658Z,662
2022-08-20T18:15:57.671Z,672
2022-08-20T18:30:47.231Z,673
2022-08-20T18:38:12.016Z,665
2022-08-20T18:51:40.836Z,672
2022-08-20T19:00:30.472Z,668
2022-08-20T19:10:27.879Z,677
2022-08-20T19:17:44.189Z,676
2022-08-20T19:25:08.987Z,675
2022-08-20T19:32:33.830Z,673
2022-08-20T19:37:51.189Z,674
2022-08-20T19:47:56.104Z,673
2022-08-20T19:55:20.893Z,668
2022-08-20T20:06:21.421Z,671
2022-08-20T20:25:00.034Z,671
2022-08-20T20:31:04.120Z,674
2022-08-20T20:37:21.278Z,675
2022-08-20T20:47:14.328Z,667
2022-08-20T20:54:39.115Z,670
2022-08-20T21:02:03.959Z,676
2022-08-20T21:09:28.691Z,676
2022-08-20T21:16:53.687Z,670
2022-08-20T21:24:18.277Z,667
2022-08-20T21:31:43.567Z,671
2022-08-20T21:39:07.793Z,676
2022-08-20T21:45:11.846Z,682
2022-08-20T21:58:55.195Z,674
2022-08-20T22:09:54.424Z,670
2022-08-20T22:21:08.200Z,671
2022-08-20T22:28:32.999Z,678
2022-08-20T22:45:50.845Z,677
2022-08-20T22:58:12.112Z,678
2022-08-20T23:05:36.909Z,680
2022-08-20T23:13:01.689Z,678
2022-08-20T23:27:51.240Z,675
2022-08-20T23:42:40.834Z,673
2022-08-20T23:48:44.847Z,675
2022-08-20T23:59:58.782Z,675
